sensor_id;sensor_type;location;lat;lon;timestamp;pressure;altitude;pressure_sealevel;temperature;humidity
31005;BME280;17676;52.254;4.490;2023-07-31T00:00:57;100357.41;;;18.14;68.73
31005;BME280;17676;52.254;4.490;2023-07-31T00:03:23;100355.78;;;18.13;68.23
31005;BME280;17676;52.254;4.490;2023-07-31T00:05:48;100363.72;;;18.14;67.73
31005;BME280;17676;52.254;4.490;2023-07-31T00:08:14;100347.81;;;18.06;69.53
31005;BME280;17676;52.254;4.490;2023-07-31T00:10:39;100361.78;;;18.10;93.06
31005;BME280;17676;52.254;4.490;2023-07-31T00:13:04;100343.72;;;18.09;92.03
31005;BME280;17676;52.254;4.490;2023-07-31T00:15:30;100358.47;;;18.03;91.96
31005;BME280;17676;52.254;4.490;2023-07-31T00:17:55;100364.72;;;17.93;92.39
31005;BME280;17676;52.254;4.490;2023-07-31T00:20:21;100355.13;;;17.81;93.56
31005;BME280;17676;52.254;4.490;2023-07-31T00:22:46;100363.34;;;17.86;92.51
31005;BME280;17676;52.254;4.490;2023-07-31T00:25:12;100344.69;;;17.73;92.82
31005;BME280;17676;52.254;4.490;2023-07-31T00:27:37;100356.22;;;17.80;91.83
31005;BME280;17676;52.254;4.490;2023-07-31T00:30:03;100369.91;;;17.85;90.43
31005;BME280;17676;52.254;4.490;2023-07-31T00:32:28;100355.72;;;17.93;91.98
31005;BME280;17676;52.254;4.490;2023-07-31T00:34:54;100356.78;;;17.87;93.54
31005;BME280;17676;52.254;4.490;2023-07-31T00:37:19;100355.97;;;17.91;92.10
31005;BME280;17676;52.254;4.490;2023-07-31T00:39:44;100375.97;;;17.92;86.56
31005;BME280;17676;52.254;4.490;2023-07-31T00:42:10;100356.00;;;17.96;85.88
31005;BME280;17676;52.254;4.490;2023-07-31T00:44:35;100356.25;;;17.90;88.19
31005;BME280;17676;52.254;4.490;2023-07-31T00:47:01;100351.34;;;17.97;96.57
31005;BME280;17676;52.254;4.490;2023-07-31T00:49:27;100359.28;;;17.98;96.48
31005;BME280;17676;52.254;4.490;2023-07-31T00:51:53;100351.09;;;17.98;95.71
31005;BME280;17676;52.254;4.490;2023-07-31T00:54:19;100342.56;;;17.90;96.04
31005;BME280;17676;52.254;4.490;2023-07-31T00:56:45;100359.22;;;17.83;96.49
31005;BME280;17676;52.254;4.490;2023-07-31T00:59:11;100353.47;;;17.80;95.58
31005;BME280;17676;52.254;4.490;2023-07-31T01:01:37;100340.91;;;17.84;94.05
31005;BME280;17676;52.254;4.490;2023-07-31T01:04:03;100342.53;;;17.80;93.63
31005;BME280;17676;52.254;4.490;2023-07-31T01:06:56;100339.22;;;17.83;94.70
31005;BME280;17676;52.254;4.490;2023-07-31T01:09:45;100327.16;;;17.79;94.70
31005;BME280;17676;52.254;4.490;2023-07-31T01:12:14;100340.06;;;17.83;93.73
31005;BME280;17676;52.254;4.490;2023-07-31T01:14:40;100335.97;;;17.91;92.83
31005;BME280;17676;52.254;4.490;2023-07-31T01:17:06;100342.56;;;17.95;92.29
31005;BME280;17676;52.254;4.490;2023-07-31T01:19:31;100326.13;;;17.95;92.03
31005;BME280;17676;52.254;4.490;2023-07-31T01:22:30;100337.38;;;17.98;91.65
31005;BME280;17676;52.254;4.490;2023-07-31T01:27:47;100335.47;;;18.04;91.61
31005;BME280;17676;52.254;4.490;2023-07-31T01:30:21;100322.59;;;18.04;91.94
31005;BME280;17676;52.254;4.490;2023-07-31T01:32:49;100331.66;;;18.05;92.64
31005;BME280;17676;52.254;4.490;2023-07-31T01:35:16;100333.28;;;18.01;94.36
31005;BME280;17676;52.254;4.490;2023-07-31T01:37:42;100323.66;;;17.93;96.93
31005;BME280;17676;52.254;4.490;2023-07-31T01:40:09;100324.50;;;17.94;97.99
31005;BME280;17676;52.254;4.490;2023-07-31T01:42:34;100329.97;;;17.94;100.00
31005;BME280;17676;52.254;4.490;2023-07-31T01:45:00;100328.34;;;17.98;100.00
31005;BME280;17676;52.254;4.490;2023-07-31T01:47:25;100335.75;;;18.07;100.00
31005;BME280;17676;52.254;4.490;2023-07-31T01:49:50;100344.19;;;17.96;100.00
31005;BME280;17676;52.254;4.490;2023-07-31T01:52:16;100337.66;;;17.92;100.00
31005;BME280;17676;52.254;4.490;2023-07-31T01:54:41;100338.16;;;17.89;100.00
31005;BME280;17676;52.254;4.490;2023-07-31T01:57:07;100329.44;;;17.92;100.00
31005;BME280;17676;52.254;4.490;2023-07-31T01:59:32;100327.22;;;17.94;100.00
31005;BME280;17676;52.254;4.490;2023-07-31T02:01:58;100321.75;;;17.94;100.00
31005;BME280;17676;52.254;4.490;2023-07-31T02:04:23;100326.72;;;18.02;100.00
31005;BME280;17676;52.254;4.490;2023-07-31T02:06:49;100321.75;;;17.89;100.00
31005;BME280;17676;52.254;4.490;2023-07-31T02:09:14;100327.47;;;17.82;100.00
31005;BME280;17676;52.254;4.490;2023-07-31T02:11:39;100336.75;;;17.81;100.00
31005;BME280;17676;52.254;4.490;2023-07-31T02:14:05;100331.06;;;17.88;100.00
31005;BME280;17676;52.254;4.490;2023-07-31T02:16:30;100321.75;;;17.89;100.00
31005;BME280;17676;52.254;4.490;2023-07-31T02:18:55;100326.38;;;17.88;100.00
31005;BME280;17676;52.254;4.490;2023-07-31T02:21:21;100339.53;;;17.86;100.00
31005;BME280;17676;52.254;4.490;2023-07-31T02:23:47;100335.94;;;17.81;100.00
31005;BME280;17676;52.254;4.490;2023-07-31T02:26:12;100340.34;;;17.87;100.00
31005;BME280;17676;52.254;4.490;2023-07-31T02:28:38;100339.28;;;17.93;100.00
31005;BME280;17676;52.254;4.490;2023-07-31T02:31:03;100334.91;;;17.97;100.00
31005;BME280;17676;52.254;4.490;2023-07-31T02:33:28;100320.38;;;17.91;100.00
31005;BME280;17676;52.254;4.490;2023-07-31T02:35:54;100327.50;;;17.92;100.00
31005;BME280;17676;52.254;4.490;2023-07-31T02:38:19;100315.41;;;17.78;100.00
31005;BME280;17676;52.254;4.490;2023-07-31T02:40:44;100334.06;;;17.96;100.00
31005;BME280;17676;52.254;4.490;2023-07-31T02:43:10;100329.44;;;17.97;100.00
31005;BME280;17676;52.254;4.490;2023-07-31T02:45:35;100323.97;;;17.97;100.00
31005;BME280;17676;52.254;4.490;2023-07-31T02:48:01;100328.34;;;18.03;100.00
31005;BME280;17676;52.254;4.490;2023-07-31T02:50:26;100322.88;;;18.08;100.00
31005;BME280;17676;52.254;4.490;2023-07-31T02:52:53;100321.47;;;17.95;100.00
31005;BME280;17676;52.254;4.490;2023-07-31T02:55:18;100334.06;;;17.96;100.00
31005;BME280;17676;52.254;4.490;2023-07-31T02:57:44;100326.13;;;17.95;100.00
31005;BME280;17676;52.254;4.490;2023-07-31T03:00:09;100333.81;;;18.03;100.00
31005;BME280;17676;52.254;4.490;2023-07-31T03:02:35;100321.50;;;18.05;100.00
31005;BME280;17676;52.254;4.490;2023-07-31T03:05:00;100326.72;;;18.02;100.00
31005;BME280;17676;52.254;4.490;2023-07-31T03:07:26;100323.97;;;18.07;100.00
31005;BME280;17676;52.254;4.490;2023-07-31T03:09:51;100344.25;;;18.06;100.00
31005;BME280;17676;52.254;4.490;2023-07-31T03:12:17;100308.59;;;17.91;100.00
31005;BME280;17676;52.254;4.490;2023-07-31T03:14:43;100334.41;;;18.10;100.00
31005;BME280;17676;52.254;4.490;2023-07-31T03:17:08;100334.94;;;18.12;100.00
31005;BME280;17676;52.254;4.490;2023-07-31T03:19:34;100338.78;;;18.06;100.00
31005;BME280;17676;52.254;4.490;2023-07-31T03:21:59;100333.03;;;18.07;100.00
31005;BME280;17676;52.254;4.490;2023-07-31T03:24:25;100338.78;;;18.11;100.00
31005;BME280;17676;52.254;4.490;2023-07-31T03:26:51;100334.41;;;18.10;100.00
31005;BME280;17676;52.254;4.490;2023-07-31T03:29:16;100342.59;;;18.05;100.00
31005;BME280;17676;52.254;4.490;2023-07-31T03:31:42;100335.50;;;18.09;100.00
31005;BME280;17676;52.254;4.490;2023-07-31T03:34:07;100338.72;;;17.96;100.00
31005;BME280;17676;52.254;4.490;2023-07-31T03:36:33;100346.91;;;17.91;100.00
31005;BME280;17676;52.254;4.490;2023-07-31T03:38:58;100344.19;;;17.86;100.00
31005;BME280;17676;52.254;4.490;2023-07-31T03:41:24;100340.06;;;17.83;100.00
31005;BME280;17676;52.254;4.490;2023-07-31T03:43:51;100332.09;;;17.77;100.00
31005;BME280;17676;52.254;4.490;2023-07-31T03:46:17;100330.47;;;17.81;100.00
31005;BME280;17676;52.254;4.490;2023-07-31T03:48:42;100324.47;;;17.84;100.00
31005;BME280;17676;52.254;4.490;2023-07-31T03:51:08;100325.03;;;17.91;100.00
31005;BME280;17676;52.254;4.490;2023-07-31T03:53:33;100323.38;;;17.90;100.00
31005;BME280;17676;52.254;4.490;2023-07-31T03:55:59;100313.53;;;17.94;100.00
31005;BME280;17676;52.254;4.490;2023-07-31T03:58:24;100319.53;;;17.91;100.00
31005;BME280;17676;52.254;4.490;2023-07-31T04:00:49;100315.69;;;17.82;100.00
31005;BME280;17676;52.254;4.490;2023-07-31T04:03:18;100312.41;;;17.85;100.00
31005;BME280;17676;52.254;4.490;2023-07-31T04:05:44;100317.88;;;17.80;100.00
31005;BME280;17676;52.254;4.490;2023-07-31T04:08:09;100331.53;;;17.75;100.00
31005;BME280;17676;52.254;4.490;2023-07-31T04:10:35;100325.78;;;17.71;100.00
31005;BME280;17676;52.254;4.490;2023-07-31T04:13:00;100316.78;;;17.76;100.00
31005;BME280;17676;52.254;4.490;2023-07-31T04:15:26;100306.88;;;17.75;100.00
31005;BME280;17676;52.254;4.490;2023-07-31T04:17:51;100310.47;;;17.75;100.00
31005;BME280;17676;52.254;4.490;2023-07-31T04:20:17;100305.00;;;17.75;100.00
31005;BME280;17676;52.254;4.490;2023-07-31T04:22:42;100296.50;;;17.72;100.00
31005;BME280;17676;52.254;4.490;2023-07-31T04:25:08;100294.88;;;17.76;100.00
31005;BME280;17676;52.254;4.490;2023-07-31T04:27:33;100297.06;;;17.79;100.00
31005;BME280;17676;52.254;4.490;2023-07-31T04:29:58;100293.50;;;17.78;100.00
31005;BME280;17676;52.254;4.490;2023-07-31T04:32:24;100280.09;;;17.77;100.00
31005;BME280;17676;52.254;4.490;2023-07-31T04:34:49;100283.66;;;17.82;100.00
31005;BME280;17676;52.254;4.490;2023-07-31T04:37:14;100283.66;;;17.82;100.00
31005;BME280;17676;52.254;4.490;2023-07-31T04:39:40;100290.19;;;17.76;100.00
31005;BME280;17676;52.254;4.490;2023-07-31T04:42:05;100287.97;;;17.68;100.00
31005;BME280;17676;52.254;4.490;2023-07-31T04:44:31;100280.88;;;17.77;100.00
31005;BME280;17676;52.254;4.490;2023-07-31T04:46:56;100277.88;;;17.79;100.00
31005;BME280;17676;52.254;4.490;2023-07-31T04:49:22;100276.53;;;17.81;100.00
31005;BME280;17676;52.254;4.490;2023-07-31T04:51:47;100263.13;;;17.80;100.00
31005;BME280;17676;52.254;4.490;2023-07-31T04:54:13;100262.56;;;17.83;100.00
31005;BME280;17676;52.254;4.490;2023-07-31T04:56:40;100250.25;;;17.85;100.00
31005;BME280;17676;52.254;4.490;2023-07-31T04:59:09;100255.44;;;17.82;100.00
31005;BME280;17676;52.254;4.490;2023-07-31T05:01:34;100260.09;;;17.76;100.00
31005;BME280;17676;52.254;4.490;2023-07-31T05:04:00;100241.75;;;17.77;95.29
31005;BME280;17676;52.254;4.490;2023-07-31T05:06:25;100231.34;;;17.79;91.31
31005;BME280;17676;52.254;4.490;2023-07-31T05:08:51;100227.50;;;17.75;87.99
31005;BME280;17676;52.254;4.490;2023-07-31T05:11:16;100231.34;;;17.79;83.99
31005;BME280;17676;52.254;4.490;2023-07-31T05:13:42;100238.19;;;17.81;80.44
31005;BME280;17676;52.254;4.490;2023-07-31T05:16:07;100225.91;;;17.84;77.35
31005;BME280;17676;52.254;4.490;2023-07-31T05:18:33;100229.75;;;17.93;74.08
31005;BME280;17676;52.254;4.490;2023-07-31T05:21:00;100211.66;;;17.82;72.49
31005;BME280;17676;52.254;4.490;2023-07-31T05:23:26;100204.00;;;17.84;71.36
31005;BME280;17676;52.254;4.490;2023-07-31T05:25:51;100193.84;;;17.84;70.15
31005;BME280;17676;52.254;4.490;2023-07-31T05:28:17;100199.31;;;17.89;68.90
31005;BME280;17676;52.254;4.490;2023-07-31T05:30:42;100189.22;;;17.85;67.72
31005;BME280;17676;52.254;4.490;2023-07-31T05:33:08;100167.56;;;17.88;66.63
31005;BME280;17676;52.254;4.490;2023-07-31T05:35:33;100166.22;;;17.86;65.35
31005;BME280;17676;52.254;4.490;2023-07-31T05:37:59;100173.88;;;17.89;64.31
31005;BME280;17676;52.254;4.490;2023-07-31T05:40:24;100173.34;;;17.92;63.52
31005;BME280;17676;52.254;4.490;2023-07-31T05:42:50;100161.28;;;17.88;62.50
31005;BME280;17676;52.254;4.490;2023-07-31T05:45:15;100162.09;;;17.93;61.49
31005;BME280;17676;52.254;4.490;2023-07-31T05:47:41;100156.91;;;17.92;60.64
31005;BME280;17676;52.254;4.490;2023-07-31T05:50:07;100146.22;;;17.90;59.88
31005;BME280;17676;52.254;4.490;2023-07-31T05:52:32;100163.47;;;17.96;58.90
31005;BME280;17676;52.254;4.490;2023-07-31T05:54:58;100165.66;;;17.94;58.12
31005;BME280;17676;52.254;4.490;2023-07-31T05:57:23;100151.44;;;17.97;57.63
31005;BME280;17676;52.254;4.490;2023-07-31T05:59:49;100145.97;;;17.92;56.87
31005;BME280;17676;52.254;4.490;2023-07-31T06:02:14;100131.44;;;17.91;56.12
31005;BME280;17676;52.254;4.490;2023-07-31T06:04:43;100143.75;;;17.99;55.27
31005;BME280;17676;52.254;4.490;2023-07-31T06:07:08;100141.56;;;18.06;54.52
31005;BME280;17676;52.254;4.490;2023-07-31T06:09:34;100125.41;;;18.04;53.73
31005;BME280;17676;52.254;4.490;2023-07-31T06:11:59;100127.06;;;18.10;52.93
31005;BME280;17676;52.254;4.490;2023-07-31T06:14:25;100139.13;;;18.14;52.23
31005;BME280;17676;52.254;4.490;2023-07-31T06:16:50;100126.50;;;18.13;51.54
31005;BME280;17676;52.254;4.490;2023-07-31T06:19:16;100120.75;;;18.10;51.03
31005;BME280;17676;52.254;4.490;2023-07-31T06:21:41;100097.75;;;18.11;50.27
31005;BME280;17676;52.254;4.490;2023-07-31T06:24:10;100105.66;;;18.17;49.61
31005;BME280;17676;52.254;4.490;2023-07-31T06:26:37;100106.50;;;18.18;49.07
31005;BME280;17676;52.254;4.490;2023-07-31T06:29:02;100106.78;;;18.11;48.60
31005;BME280;17676;52.254;4.490;2023-07-31T06:31:28;100105.97;;;18.11;48.09
31005;BME280;17676;52.254;4.490;2023-07-31T06:33:54;100104.06;;;18.11;47.59
31005;BME280;17676;52.254;4.490;2023-07-31T06:36:19;100089.81;;;18.14;47.00
31005;BME280;17676;52.254;4.490;2023-07-31T06:38:45;100102.69;;;18.09;46.58
31005;BME280;17676;52.254;4.490;2023-07-31T06:41:10;100075.03;;;18.10;46.12
31005;BME280;17676;52.254;4.490;2023-07-31T06:43:36;100085.69;;;18.22;45.62
31005;BME280;17676;52.254;4.490;2023-07-31T06:46:06;100085.13;;;18.25;45.26
31005;BME280;17676;52.254;4.490;2023-07-31T06:48:35;100074.72;;;18.22;44.94
31005;BME280;17676;52.254;4.490;2023-07-31T06:51:02;100070.34;;;18.26;44.56
31005;BME280;17676;52.254;4.490;2023-07-31T06:53:30;100078.53;;;18.36;43.61
31005;BME280;17676;52.254;4.490;2023-07-31T06:55:56;100068.13;;;18.28;43.60
31005;BME280;17676;52.254;4.490;2023-07-31T06:58:21;100081.00;;;18.27;43.45
31005;BME280;17676;52.254;4.490;2023-07-31T07:00:47;100067.91;;;18.14;43.43
31005;BME280;17676;52.254;4.490;2023-07-31T07:03:14;100073.38;;;18.14;43.23
31005;BME280;17676;52.254;4.490;2023-07-31T07:05:40;100072.00;;;18.17;43.02
31005;BME280;17676;52.254;4.490;2023-07-31T07:08:05;100080.75;;;18.19;42.90
31005;BME280;17676;52.254;4.490;2023-07-31T07:10:31;100088.41;;;18.22;42.67
31005;BME280;17676;52.254;4.490;2023-07-31T07:12:56;100081.84;;;18.23;42.39
31005;BME280;17676;52.254;4.490;2023-07-31T07:15:22;100074.16;;;18.30;42.13
31005;BME280;17676;52.254;4.490;2023-07-31T07:17:47;100062.41;;;18.34;41.89
31005;BME280;17676;52.254;4.490;2023-07-31T07:20:13;100071.94;;;18.32;41.79
31005;BME280;17676;52.254;4.490;2023-07-31T07:22:38;100082.38;;;18.40;41.57
31005;BME280;17676;52.254;4.490;2023-07-31T07:25:05;100213.91;;;18.40;41.40
31005;BME280;17676;52.254;4.490;2023-07-31T07:27:30;100213.91;;;18.40;41.26
31005;BME280;17676;52.254;4.490;2023-07-31T07:29:56;100221.06;;;18.41;41.10
31005;BME280;17676;52.254;4.490;2023-07-31T07:32:21;100221.84;;;18.41;40.96
31005;BME280;17676;52.254;4.490;2023-07-31T07:34:48;100216.66;;;18.45;40.71
31005;BME280;17676;52.254;4.490;2023-07-31T07:37:13;100219.69;;;18.43;40.59
31005;BME280;17676;52.254;4.490;2023-07-31T07:39:39;100217.19;;;18.52;40.37
31005;BME280;17676;52.254;4.490;2023-07-31T07:42:05;100219.38;;;18.55;40.20
31005;BME280;17676;52.254;4.490;2023-07-31T07:44:31;100225.97;;;18.54;40.05
31005;BME280;17676;52.254;4.490;2023-07-31T07:46:56;100219.94;;;18.62;39.83
31005;BME280;17676;52.254;4.490;2023-07-31T07:49:22;100230.91;;;18.57;39.84
31005;BME280;17676;52.254;4.490;2023-07-31T07:51:48;100230.88;;;18.52;39.86
31005;BME280;17676;52.254;4.490;2023-07-31T07:54:15;100237.50;;;18.61;39.71
31005;BME280;17676;52.254;4.490;2023-07-31T07:56:41;100225.16;;;18.63;39.60
31005;BME280;17676;52.254;4.490;2023-07-31T07:59:07;100221.03;;;18.66;39.53
31005;BME280;17676;52.254;4.490;2023-07-31T08:01:32;100229.78;;;18.63;39.55
31005;BME280;17676;52.254;4.490;2023-07-31T08:03:58;100223.75;;;18.66;39.51
31005;BME280;17676;52.254;4.490;2023-07-31T08:06:23;100221.56;;;18.68;39.49
31005;BME280;17676;52.254;4.490;2023-07-31T08:08:49;100213.31;;;18.78;39.36
31005;BME280;17676;52.254;4.490;2023-07-31T08:11:15;100211.69;;;18.82;39.31
31005;BME280;17676;52.254;4.490;2023-07-31T08:13:40;100221.56;;;18.78;39.33
31005;BME280;17676;52.254;4.490;2023-07-31T08:16:06;100226.22;;;18.87;39.23
31005;BME280;17676;52.254;4.490;2023-07-31T08:18:31;100221.53;;;18.93;39.18
31005;BME280;17676;52.254;4.490;2023-07-31T08:20:57;100221.00;;;18.81;39.35
31005;BME280;17676;52.254;4.490;2023-07-31T08:23:23;100208.94;;;18.82;39.38
31005;BME280;17676;52.254;4.490;2023-07-31T08:25:48;100222.66;;;18.72;39.54
31005;BME280;17676;52.254;4.490;2023-07-31T08:28:16;100220.44;;;18.79;39.44
31005;BME280;17676;52.254;4.490;2023-07-31T08:30:41;100209.47;;;18.84;39.42
31005;BME280;17676;52.254;4.490;2023-07-31T08:33:07;100218.78;;;18.88;39.34
31005;BME280;17676;52.254;4.490;2023-07-31T08:35:32;100228.66;;;18.94;39.30
31005;BME280;17676;52.254;4.490;2023-07-31T08:37:58;100213.00;;;18.99;39.24
31005;BME280;17676;52.254;4.490;2023-07-31T08:40:23;100212.16;;;19.04;39.25
31005;BME280;17676;52.254;4.490;2023-07-31T08:42:54;100222.91;;;18.85;39.56
31005;BME280;17676;52.254;4.490;2023-07-31T08:45:22;100216.59;;;18.90;39.61
31005;BME280;17676;52.254;4.490;2023-07-31T08:47:50;100227.81;;;18.98;39.57
31005;BME280;17676;52.254;4.490;2023-07-31T08:50:18;100221.78;;;19.01;39.65
31005;BME280;17676;52.254;4.490;2023-07-31T08:52:46;100221.75;;;19.06;39.73
31005;BME280;17676;52.254;4.490;2023-07-31T08:55:12;100226.94;;;19.18;39.69
31005;BME280;17676;52.254;4.490;2023-07-31T08:57:39;100236.53;;;19.20;39.88
31005;BME280;17676;52.254;4.490;2023-07-31T09:00:06;100229.69;;;19.18;40.09
31005;BME280;17676;52.254;4.490;2023-07-31T09:05:29;100240.94;;;19.16;40.62
31005;BME280;17676;52.254;4.490;2023-07-31T09:07:56;100239.03;;;19.12;40.95
31005;BME280;17676;52.254;4.490;2023-07-31T09:10:22;100251.66;;;19.08;41.25
31005;BME280;17676;52.254;4.490;2023-07-31T09:12:49;100263.19;;;19.10;41.51
31005;BME280;17676;52.254;4.490;2023-07-31T09:15:14;100269.22;;;19.07;41.83
31005;BME280;17676;52.254;4.490;2023-07-31T09:17:40;100256.03;;;19.04;42.05
31005;BME280;17676;52.254;4.490;2023-07-31T09:22:40;100269.22;;;19.17;42.38
31005;BME280;17676;52.254;4.490;2023-07-31T09:25:22;100271.38;;;19.15;42.69
31005;BME280;17676;52.254;4.490;2023-07-31T09:27:54;100270.84;;;19.28;42.75
31005;BME280;17676;52.254;4.490;2023-07-31T09:30:23;100258.16;;;19.37;42.86
31005;BME280;17676;52.254;4.490;2023-07-31T09:33:05;100263.72;;;19.27;43.32
31005;BME280;17676;52.254;4.490;2023-07-31T09:35:34;100277.34;;;19.52;43.36
31005;BME280;17676;52.254;4.490;2023-07-31T09:38:03;100277.31;;;19.62;43.59
31005;BME280;17676;52.254;4.490;2023-07-31T09:40:31;100280.09;;;19.47;44.31
31005;BME280;17676;52.254;4.490;2023-07-31T09:42:58;100273.97;;;19.70;44.32
31005;BME280;17676;52.254;4.490;2023-07-31T09:45:25;100278.63;;;19.70;44.85
31005;BME280;17676;52.254;4.490;2023-07-31T09:47:51;100270.69;;;19.68;45.38
31005;BME280;17676;52.254;4.490;2023-07-31T09:50:17;100278.34;;;19.71;45.95
31005;BME280;17676;52.254;4.490;2023-07-31T09:52:42;100287.13;;;19.78;46.46
31005;BME280;17676;52.254;4.490;2023-07-31T09:55:09;100283.47;;;19.93;46.81
31005;BME280;17676;52.254;4.490;2023-07-31T09:57:44;100279.31;;;20.00;47.48
31005;BME280;17676;52.254;4.490;2023-07-31T10:00:11;100280.63;;;20.08;48.27
31005;BME280;17676;52.254;4.490;2023-07-31T10:02:38;100273.19;;;20.13;49.16
31005;BME280;17676;52.254;4.490;2023-07-31T10:05:05;100282.50;;;20.22;49.95
31005;BME280;17676;52.254;4.490;2023-07-31T10:07:32;100275.94;;;20.18;51.13
31005;BME280;17676;52.254;4.490;2023-07-31T10:10:00;100284.19;;;20.13;52.52
31005;BME280;17676;52.254;4.490;2023-07-31T10:12:29;100275.19;;;19.98;53.98
31005;BME280;17676;52.254;4.490;2023-07-31T10:14:55;100283.19;;;19.89;55.30
31005;BME280;17676;52.254;4.490;2023-07-31T10:17:25;100286.53;;;19.81;56.73
31005;BME280;17676;52.254;4.490;2023-07-31T10:19:50;100286.53;;;19.81;57.62
31005;BME280;17676;52.254;4.490;2023-07-31T10:22:16;100285.44;;;19.87;58.19
31005;BME280;17676;52.254;4.490;2023-07-31T10:24:45;100293.13;;;19.80;59.49
31005;BME280;17676;52.254;4.490;2023-07-31T10:27:13;100285.44;;;19.87;60.46
31005;BME280;17676;52.254;4.490;2023-07-31T10:29:39;100296.75;;;19.76;62.13
31005;BME280;17676;52.254;4.490;2023-07-31T10:32:07;100289.84;;;19.83;63.08
31005;BME280;17676;52.254;4.490;2023-07-31T10:34:39;100287.88;;;19.89;64.03
31005;BME280;17676;52.254;4.490;2023-07-31T10:37:27;100289.28;;;19.86;65.48
31005;BME280;17676;52.254;4.490;2023-07-31T10:40:16;100285.38;;;19.92;66.50
31005;BME280;17676;52.254;4.490;2023-07-31T10:42:53;100279.97;;;19.82;68.25
31005;BME280;17676;52.254;4.490;2023-07-31T10:45:33;100285.44;;;19.87;69.39
31005;BME280;17676;52.254;4.490;2023-07-31T10:50:28;100281.22;;;20.05;71.35
31005;BME280;17676;52.254;4.490;2023-07-31T10:52:55;100274.63;;;20.01;72.87
31005;BME280;17676;52.254;4.490;2023-07-31T10:55:41;100293.59;;;20.02;74.25
31005;BME280;17676;52.254;4.490;2023-07-31T10:58:13;100280.34;;;20.14;75.08
31005;BME280;17676;52.254;4.490;2023-07-31T11:00:44;100290.19;;;20.20;76.34
31005;BME280;17676;52.254;4.490;2023-07-31T11:03:14;100288.09;;;20.02;79.11
31005;BME280;17676;52.254;4.490;2023-07-31T11:05:53;100276.06;;;19.88;80.88
31005;BME280;17676;52.254;4.490;2023-07-31T11:08:28;100271.63;;;20.02;82.00
31005;BME280;17676;52.254;4.490;2023-07-31T11:13:32;100274.28;;;20.17;84.12
31005;BME280;17676;52.254;4.490;2023-07-31T11:15:58;100283.94;;;20.10;86.34
31005;BME280;17676;52.254;4.490;2023-07-31T11:18:25;100286.09;;;20.18;87.64
31005;BME280;17676;52.254;4.490;2023-07-31T11:20:52;100268.16;;;20.30;87.79
31005;BME280;17676;52.254;4.490;2023-07-31T11:23:22;100260.53;;;20.17;91.03
31005;BME280;17676;52.254;4.490;2023-07-31T11:25:51;100257.28;;;20.05;94.56
31005;BME280;17676;52.254;4.490;2023-07-31T11:28:18;100257.84;;;20.07;96.64
31005;BME280;17676;52.254;4.490;2023-07-31T11:30:45;100261.13;;;20.09;97.86
31005;BME280;17676;52.254;4.490;2023-07-31T11:33:12;100262.81;;;20.10;99.62
31005;BME280;17676;52.254;4.490;2023-07-31T11:35:44;100270.22;;;20.05;100.00
31005;BME280;17676;52.254;4.490;2023-07-31T11:38:26;100277.63;;;20.09;100.00
31005;BME280;17676;52.254;4.490;2023-07-31T11:40:53;100271.63;;;20.02;100.00
31005;BME280;17676;52.254;4.490;2023-07-31T11:43:19;100284.22;;;20.03;100.00
31005;BME280;17676;52.254;4.490;2023-07-31T11:45:51;100274.97;;;19.89;100.00
31005;BME280;17676;52.254;4.490;2023-07-31T11:48:27;100291.91;;;20.06;100.00
31005;BME280;17676;52.254;4.490;2023-07-31T11:50:55;100293.88;;;19.96;100.00
31005;BME280;17676;52.254;4.490;2023-07-31T11:53:28;100286.50;;;19.91;100.00
31005;BME280;17676;52.254;4.490;2023-07-31T11:55:58;100293.63;;;19.92;100.00
31005;BME280;17676;52.254;4.490;2023-07-31T11:58:24;100315.53;;;20.07;100.00
31005;BME280;17676;52.254;4.490;2023-07-31T12:00:50;100310.06;;;20.02;100.00
31005;BME280;17676;52.254;4.490;2023-07-31T12:03:16;100300.31;;;20.30;100.00
31005;BME280;17676;52.254;4.490;2023-07-31T12:05:41;100283.88;;;20.20;100.00
31005;BME280;17676;52.254;4.490;2023-07-31T12:08:11;100267.66;;;20.23;100.00
31005;BME280;17676;52.254;4.490;2023-07-31T12:10:37;100263.25;;;20.22;100.00
31005;BME280;17676;52.254;4.490;2023-07-31T12:13:05;100253.88;;;20.28;100.00
31005;BME280;17676;52.254;4.490;2023-07-31T12:15:38;100277.56;;;20.19;100.00
31005;BME280;17676;52.254;4.490;2023-07-31T12:18:13;100266.63;;;20.09;100.00
31005;BME280;17676;52.254;4.490;2023-07-31T12:20:47;100274.63;;;20.01;100.00
31005;BME280;17676;52.254;4.490;2023-07-31T12:23:26;100260.59;;;20.07;100.00
31005;BME280;17676;52.254;4.490;2023-07-31T12:26:13;100279.16;;;20.25;100.00
31005;BME280;17676;52.254;4.490;2023-07-31T12:28:43;100280.84;;;20.21;100.00
31005;BME280;17676;52.254;4.490;2023-07-31T12:31:11;100279.44;;;20.24;100.00
31005;BME280;17676;52.254;4.490;2023-07-31T12:33:39;100268.13;;;20.35;100.00
31005;BME280;17676;52.254;4.490;2023-07-31T12:36:09;100258.69;;;20.41;100.00
31005;BME280;17676;52.254;4.490;2023-07-31T12:38:34;100253.19;;;20.41;100.00
31005;BME280;17676;52.254;4.490;2023-07-31T12:41:00;100244.84;;;20.56;100.00
31005;BME280;17676;52.254;4.490;2023-07-31T12:43:25;100245.91;;;20.60;100.00
31005;BME280;17676;52.254;4.490;2023-07-31T12:45:51;100248.28;;;21.00;100.00
31005;BME280;17676;52.254;4.490;2023-07-31T12:48:16;100244.50;;;20.96;100.00
31005;BME280;17676;52.254;4.490;2023-07-31T12:50:42;100251.06;;;21.24;100.00
31005;BME280;17676;52.254;4.490;2023-07-31T12:53:07;100244.09;;;21.31;100.00
31005;BME280;17676;52.254;4.490;2023-07-31T12:55:33;100246.59;;;21.28;100.00
31005;BME280;17676;52.254;4.490;2023-07-31T12:58:00;100240.88;;;21.24;100.00